createdAt,value
2019-02-15T00:01:25.798Z,18.30
2019-02-15T00:03:55.488Z,17.93
2019-02-15T00:06:25.488Z,18.57
2019-02-15T00:08:55.445Z,18.97
2019-02-15T00:11:25.141Z,18.63
2019-02-15T00:13:54.906Z,19.00
2019-02-15T00:16:25.362Z,20.30
2019-02-15T00:19:14.078Z,18.40
2019-02-15T00:21:46.230Z,18.07
2019-02-15T00:24:16.228Z,18.10
2019-02-15T00:26:46.637Z,17.92
2019-02-15T00:29:16.542Z,18.30
2019-02-15T00:31:47.377Z,20.53
2019-02-15T00:34:17.066Z,18.17
2019-02-15T00:36:46.761Z,17.67
2019-02-15T00:39:16.439Z,18.60
2019-02-15T00:41:46.117Z,20.30
2019-02-15T00:44:16.132Z,19.27
2019-02-15T00:47:03.573Z,18.77
2019-02-15T00:49:38.457Z,17.80
2019-02-15T00:52:36.342Z,17.30
2019-02-15T00:55:12.793Z,18.03
2019-02-15T00:58:01.536Z,18.33
2019-02-15T01:00:53.033Z,18.37
2019-02-15T01:03:40.550Z,18.77
2019-02-15T01:06:29.248Z,18.45
2019-02-15T01:09:17.105Z,18.80
2019-02-15T01:11:51.236Z,19.07
2019-02-15T01:14:20.930Z,18.67
2019-02-15T01:16:50.613Z,18.20
2019-02-15T01:19:20.369Z,18.45
2019-02-15T01:21:50.149Z,19.53
2019-02-15T01:24:20.040Z,19.17
2019-02-15T01:26:53.362Z,19.93
2019-02-15T01:29:35.109Z,18.57
2019-02-15T01:32:23.382Z,18.17
2019-02-15T01:35:03.032Z,18.73
2019-02-15T01:37:57.482Z,19.03
2019-02-15T01:40:46.204Z,18.30
2019-02-15T01:43:39.775Z,19.40
2019-02-15T01:46:11.918Z,19.17
2019-02-15T01:48:41.618Z,20.20
2019-02-15T01:51:11.589Z,20.02
2019-02-15T01:53:41.281Z,18.70
2019-02-15T01:56:10.954Z,18.57
2019-02-15T01:58:40.641Z,17.73
2019-02-15T02:01:10.337Z,18.52
2019-02-15T02:03:40.184Z,19.60
2019-02-15T02:06:09.868Z,18.80
2019-02-15T02:08:39.638Z,18.00
2019-02-15T02:11:09.392Z,18.35
2019-02-15T02:13:49.026Z,20.30
2019-02-15T02:16:11.481Z,18.30
2019-02-15T02:18:41.230Z,19.90
2019-02-15T02:21:10.922Z,19.40
2019-02-15T02:23:40.596Z,18.83
2019-02-15T02:26:10.357Z,18.35
2019-02-15T02:28:40.045Z,18.80
2019-02-15T02:31:10.768Z,17.87
2019-02-15T02:33:40.475Z,19.43
2019-02-15T02:36:10.247Z,18.80
2019-02-15T02:38:39.960Z,18.53
2019-02-15T02:41:09.639Z,17.20
2019-02-15T02:43:39.340Z,18.00
2019-02-15T02:46:09.095Z,18.83
2019-02-15T02:48:38.784Z,18.30
2019-02-15T02:51:08.464Z,17.23
2019-02-15T02:53:38.151Z,17.30
2019-02-15T02:56:07.846Z,17.20
2019-02-15T02:58:37.560Z,16.20
2019-02-15T03:01:07.380Z,17.23
2019-02-15T03:03:37.136Z,16.60
2019-02-15T03:06:07.563Z,15.88
2019-02-15T03:08:37.248Z,16.30
2019-02-15T03:11:07.191Z,16.40
2019-02-15T03:13:36.915Z,16.23
2019-02-15T03:16:06.896Z,16.33
2019-02-15T03:18:36.574Z,17.23
2019-02-15T03:21:06.264Z,17.27
2019-02-15T03:23:35.938Z,20.88
2019-02-15T03:26:05.738Z,19.70
2019-02-15T03:28:35.405Z,17.50
2019-02-15T03:31:05.148Z,16.87
2019-02-15T03:33:34.798Z,17.00
2019-02-15T03:36:05.773Z,16.13
2019-02-15T03:38:55.052Z,16.57
2019-02-15T03:41:33.091Z,16.10
2019-02-15T03:44:02.751Z,15.83
2019-02-15T03:46:32.466Z,16.10
2019-02-15T03:49:02.155Z,16.63
2019-02-15T03:51:31.832Z,15.93
2019-02-15T03:54:01.572Z,15.87
2019-02-15T03:56:31.263Z,15.47
2019-02-15T03:59:01.090Z,17.20
2019-02-15T04:01:30.932Z,15.33
2019-02-15T04:04:00.723Z,15.90
2019-02-15T04:06:30.667Z,15.60
2019-02-15T04:09:00.356Z,16.17
2019-02-15T04:11:30.352Z,16.27
2019-02-15T04:14:00.016Z,14.40
2019-02-15T04:16:29.869Z,17.00
2019-02-15T04:18:59.530Z,15.60
2019-02-15T04:21:29.477Z,15.63
2019-02-15T04:23:59.529Z,14.80
2019-02-15T04:26:29.205Z,15.00
2019-02-15T04:28:59.077Z,15.27
2019-02-15T04:31:28.746Z,16.03
2019-02-15T04:33:58.432Z,15.47
2019-02-15T04:36:28.132Z,16.37
2019-02-15T04:38:57.813Z,15.07
2019-02-15T04:41:27.507Z,15.23
2019-02-15T04:43:57.184Z,18.70
2019-02-15T04:46:26.944Z,16.77
2019-02-15T04:48:56.702Z,16.07
2019-02-15T04:51:26.406Z,16.13
2019-02-15T04:53:56.082Z,16.23
2019-02-15T04:56:25.769Z,15.60
2019-02-15T04:58:55.455Z,14.73
2019-02-15T05:01:25.216Z,16.47
2019-02-15T05:03:55.948Z,15.40
2019-02-15T05:06:25.732Z,15.80
2019-02-15T05:08:55.403Z,16.17
2019-02-15T05:11:25.121Z,14.93
2019-02-15T05:13:54.796Z,14.60
2019-02-15T05:16:24.718Z,15.63
2019-02-15T05:18:54.655Z,14.20
2019-02-15T05:21:24.342Z,14.90
2019-02-15T05:23:54.018Z,15.63
2019-02-15T05:26:23.702Z,15.27
2019-02-15T05:28:55.187Z,15.43
2019-02-15T05:31:25.102Z,16.17
2019-02-15T05:33:54.775Z,15.47
2019-02-15T05:36:24.742Z,16.57
2019-02-15T05:38:54.481Z,16.80
2019-02-15T05:41:24.409Z,14.67
2019-02-15T05:43:54.113Z,15.90
2019-02-15T05:46:23.804Z,16.17
2019-02-15T05:48:53.519Z,14.63
2019-02-15T05:51:23.207Z,17.25
2019-02-15T05:53:53.144Z,16.87
2019-02-15T05:56:23.111Z,16.30
2019-02-15T05:58:53.029Z,18.05
2019-02-15T06:01:24.304Z,20.00
2019-02-15T06:03:53.969Z,16.57
2019-02-15T06:06:25.197Z,17.30
2019-02-15T06:08:54.887Z,16.17
2019-02-15T06:11:24.559Z,16.87
2019-02-15T06:13:54.259Z,16.10
2019-02-15T06:16:23.956Z,16.27
2019-02-15T06:18:53.901Z,16.20
2019-02-15T06:21:23.595Z,15.77
2019-02-15T06:23:53.276Z,17.53
2019-02-15T06:26:22.976Z,16.73
2019-02-15T06:28:52.691Z,16.10
2019-02-15T06:31:22.380Z,16.90
2019-02-15T06:33:52.381Z,15.93
2019-02-15T06:36:22.347Z,18.00
2019-02-15T06:38:52.026Z,17.75
2019-02-15T06:41:21.750Z,19.17
2019-02-15T06:43:51.661Z,17.43
2019-02-15T06:46:21.329Z,17.93
2019-02-15T06:48:51.017Z,16.53
2019-02-15T06:51:20.699Z,17.97
2019-02-15T06:53:50.387Z,18.27
2019-02-15T06:56:20.128Z,17.80
2019-02-15T06:59:08.975Z,17.80
2019-02-15T07:02:03.999Z,18.27
2019-02-15T07:04:50.312Z,17.33
2019-02-15T07:07:19.996Z,17.23
2019-02-15T07:09:49.924Z,18.00
2019-02-15T07:12:19.600Z,17.40
2019-02-15T07:14:49.357Z,18.60
2019-02-15T07:17:19.044Z,18.50
2019-02-15T07:19:48.728Z,16.50
2019-02-15T07:22:18.402Z,16.67
2019-02-15T07:24:48.158Z,17.53
2019-02-15T07:27:18.008Z,17.10
2019-02-15T07:29:47.697Z,17.87
2019-02-15T07:32:17.393Z,18.00
2019-02-15T07:34:47.333Z,16.97
2019-02-15T07:37:17.020Z,17.25
2019-02-15T07:39:46.794Z,18.37
2019-02-15T07:42:16.452Z,22.13
2019-02-15T07:44:46.629Z,19.37
2019-02-15T07:47:16.315Z,18.40
2019-02-15T07:49:45.994Z,19.40
2019-02-15T07:52:15.913Z,17.67
2019-02-15T07:54:45.611Z,17.77
2019-02-15T07:57:15.301Z,18.60
2019-02-15T07:59:44.968Z,19.07
2019-02-15T08:02:14.958Z,17.13
2019-02-15T08:04:44.653Z,18.53
2019-02-15T08:07:14.352Z,18.80
2019-02-15T08:09:44.027Z,20.30
2019-02-15T08:12:13.712Z,19.37
2019-02-15T08:14:43.402Z,19.70
2019-02-15T08:17:13.082Z,21.87
2019-02-15T08:19:42.759Z,21.33
2019-02-15T08:22:12.445Z,22.05
2019-02-15T08:24:42.419Z,20.63
2019-02-15T08:27:12.095Z,20.60
2019-02-15T08:29:41.795Z,19.85
2019-02-15T08:32:11.483Z,20.32
2019-02-15T08:34:41.399Z,22.37
2019-02-15T08:37:11.205Z,21.70
2019-02-15T08:39:40.871Z,22.03
2019-02-15T08:42:10.537Z,20.17
2019-02-15T08:44:40.225Z,19.80
2019-02-15T08:47:09.961Z,19.30
2019-02-15T08:49:39.662Z,20.03
2019-02-15T08:52:09.444Z,18.87
2019-02-15T08:54:39.089Z,14.97
2019-02-15T08:57:08.948Z,15.20
2019-02-15T08:59:38.878Z,14.00
2019-02-15T09:02:20.566Z,15.73
2019-02-15T09:04:50.332Z,13.53
2019-02-15T09:07:20.018Z,12.82
2019-02-15T09:09:49.708Z,12.47
2019-02-15T09:12:19.462Z,11.30
2019-02-15T09:14:49.669Z,11.17
2019-02-15T09:17:19.598Z,10.25
2019-02-15T09:19:49.548Z,10.27
2019-02-15T09:22:19.228Z,9.80
2019-02-15T09:24:48.908Z,9.73
2019-02-15T09:27:27.826Z,9.53
2019-02-15T09:30:00.587Z,9.50
2019-02-15T09:32:30.348Z,8.93
2019-02-15T09:35:00.044Z,10.30
2019-02-15T09:37:29.719Z,9.90
2019-02-15T09:39:59.390Z,8.67
2019-02-15T09:42:29.208Z,8.83
2019-02-15T09:44:59.865Z,9.07
2019-02-15T09:47:29.546Z,8.83
2019-02-15T09:49:59.258Z,8.83
2019-02-15T09:52:28.929Z,8.45
2019-02-15T09:54:58.653Z,8.90
2019-02-15T09:57:28.322Z,7.40
2019-02-15T09:59:58.000Z,6.83
2019-02-15T10:02:27.664Z,7.50
2019-02-15T10:04:57.577Z,6.83
2019-02-15T10:07:27.322Z,7.67
2019-02-15T10:09:57.550Z,6.47
2019-02-15T10:12:27.211Z,5.93
2019-02-15T10:14:56.888Z,6.45
2019-02-15T10:17:26.562Z,5.80
2019-02-15T10:19:56.226Z,6.53
2019-02-15T10:22:25.898Z,6.80
2019-02-15T10:24:55.562Z,6.43
2019-02-15T10:27:25.234Z,5.90
2019-02-15T10:29:55.104Z,6.73
2019-02-15T10:32:24.792Z,5.80
2019-02-15T10:34:54.453Z,6.37
2019-02-15T10:37:24.130Z,5.73
2019-02-15T10:39:53.801Z,6.00
2019-02-15T10:42:23.466Z,6.80
2019-02-15T10:44:53.174Z,6.10
2019-02-15T10:47:25.244Z,5.63
2019-02-15T10:49:54.541Z,5.63
2019-02-15T10:52:24.215Z,5.43
2019-02-15T10:54:53.919Z,5.00
2019-02-15T10:57:23.680Z,5.03
2019-02-15T10:59:53.599Z,5.20
2019-02-15T11:02:23.276Z,5.13
2019-02-15T11:04:53.127Z,5.05
2019-02-15T11:07:22.798Z,4.53
2019-02-15T11:09:52.461Z,4.80
2019-02-15T11:12:22.146Z,4.70
2019-02-15T11:14:51.834Z,5.03
2019-02-15T11:17:21.802Z,4.63
2019-02-15T11:19:51.681Z,4.43
2019-02-15T11:22:21.340Z,4.70
2019-02-15T11:24:51.024Z,5.07
2019-02-15T11:27:20.697Z,4.77
2019-02-15T11:29:50.372Z,4.47
2019-02-15T11:32:20.081Z,4.57
2019-02-15T11:34:49.745Z,4.63
2019-02-15T11:37:19.415Z,4.00
2019-02-15T11:39:49.263Z,4.00
2019-02-15T11:42:18.943Z,4.72
2019-02-15T11:44:48.609Z,4.53
2019-02-15T11:47:18.281Z,4.10
2019-02-15T11:49:48.205Z,4.40
2019-02-15T11:52:17.889Z,4.13
2019-02-15T11:54:48.103Z,5.10
2019-02-15T11:57:18.788Z,4.40
2019-02-15T11:59:48.476Z,4.30
2019-02-15T12:02:18.155Z,4.00
2019-02-15T12:04:48.100Z,4.20
2019-02-15T12:07:18.735Z,4.53
2019-02-15T12:09:48.411Z,4.50
2019-02-15T12:12:18.149Z,4.17
2019-02-15T12:14:48.075Z,4.30
2019-02-15T12:17:17.743Z,4.73
2019-02-15T12:19:47.685Z,4.10
2019-02-15T12:22:18.345Z,4.80
2019-02-15T12:24:48.024Z,4.60
2019-02-15T12:27:17.921Z,4.67
2019-02-15T12:29:47.550Z,4.63
2019-02-15T12:32:17.261Z,4.60
2019-02-15T12:34:47.003Z,4.37
2019-02-15T12:37:17.117Z,4.43
2019-02-15T12:39:47.759Z,4.90
2019-02-15T12:42:19.247Z,4.85
2019-02-15T12:44:49.150Z,4.60
2019-02-15T12:47:19.002Z,4.50
2019-02-15T12:49:48.668Z,4.72
2019-02-15T12:52:18.415Z,4.63
2019-02-15T12:54:48.097Z,4.23
2019-02-15T12:57:17.829Z,4.60
2019-02-15T12:59:47.525Z,4.97
2019-02-15T13:02:17.358Z,4.53
2019-02-15T13:04:47.040Z,4.57
2019-02-15T13:07:16.974Z,4.27
2019-02-15T13:09:47.616Z,4.47
2019-02-15T13:12:17.360Z,5.07
2019-02-15T13:14:47.041Z,4.60
2019-02-15T13:17:24.436Z,4.85
2019-02-15T13:19:48.227Z,4.53
2019-02-15T13:22:20.060Z,4.70
2019-02-15T13:24:49.429Z,4.93
2019-02-15T13:27:19.112Z,4.35
2019-02-15T13:29:49.240Z,4.47
2019-02-15T13:32:18.901Z,5.03
2019-02-15T13:34:48.566Z,4.60
2019-02-15T13:37:18.254Z,4.70
2019-02-15T13:39:47.960Z,4.50
2019-02-15T13:42:17.648Z,4.72
2019-02-15T13:44:47.332Z,5.30
2019-02-15T13:47:17.085Z,4.70
2019-02-15T13:49:47.020Z,4.20
2019-02-15T13:52:17.700Z,4.58
2019-02-15T13:54:47.367Z,4.50
2019-02-15T13:57:17.038Z,4.60
2019-02-15T13:59:46.734Z,4.70
2019-02-15T14:02:16.400Z,4.33
2019-02-15T14:04:46.081Z,4.80
2019-02-15T14:07:19.990Z,3.90
2019-02-15T14:09:50.024Z,4.03
2019-02-15T14:12:19.711Z,4.37
2019-02-15T14:14:50.629Z,3.53
2019-02-15T14:17:20.312Z,4.40
2019-02-15T14:19:49.971Z,4.10
2019-02-15T14:22:19.673Z,4.40
2019-02-15T14:24:49.346Z,4.77
2019-02-15T14:27:19.035Z,4.10
2019-02-15T14:29:48.994Z,4.65
2019-02-15T14:32:18.675Z,4.35
2019-02-15T14:34:48.655Z,4.47
2019-02-15T14:37:18.348Z,4.30
2019-02-15T14:39:48.014Z,4.17
2019-02-15T14:42:17.678Z,4.20
2019-02-15T14:44:47.365Z,4.23
2019-02-15T14:47:18.074Z,5.30
2019-02-15T14:49:47.758Z,4.50
2019-02-15T14:52:17.451Z,4.30
2019-02-15T14:54:47.151Z,4.13
2019-02-15T14:57:16.856Z,4.37
2019-02-15T14:59:46.557Z,5.07
2019-02-15T15:02:16.227Z,4.53
2019-02-15T15:04:45.993Z,4.23
2019-02-15T15:07:15.667Z,4.35
2019-02-15T15:09:45.377Z,4.30
2019-02-15T15:12:15.323Z,4.33
2019-02-15T15:14:44.989Z,4.30
2019-02-15T15:17:14.659Z,4.40
2019-02-15T15:19:44.335Z,4.80
2019-02-15T15:22:14.013Z,4.73
2019-02-15T15:24:43.741Z,4.73
2019-02-15T15:27:13.489Z,4.90
2019-02-15T15:29:43.176Z,4.63
2019-02-15T15:32:12.852Z,4.90
2019-02-15T15:34:42.780Z,4.77
2019-02-15T15:37:16.523Z,4.77
2019-02-15T15:39:43.863Z,5.40
2019-02-15T15:42:13.556Z,4.72
2019-02-15T15:44:43.256Z,5.28
2019-02-15T15:47:12.944Z,5.20
2019-02-15T15:49:42.881Z,5.20
2019-02-15T15:52:12.577Z,6.03
2019-02-15T15:54:42.324Z,6.67
2019-02-15T15:57:12.045Z,6.20
2019-02-15T15:59:41.954Z,5.40
2019-02-15T16:02:11.626Z,5.95
2019-02-15T16:04:41.319Z,5.70
2019-02-15T16:07:11.006Z,4.92
2019-02-15T16:09:40.674Z,5.77
2019-02-15T16:12:10.341Z,5.70
2019-02-15T16:14:41.553Z,5.43
2019-02-15T16:17:12.200Z,6.20
2019-02-15T16:19:49.445Z,5.57
2019-02-15T16:22:14.746Z,6.10
2019-02-15T16:24:44.433Z,5.43
2019-02-15T16:27:14.101Z,5.80
2019-02-15T16:29:43.772Z,5.50
2019-02-15T16:32:13.458Z,6.22
2019-02-15T16:34:43.113Z,5.57
2019-02-15T16:37:13.051Z,6.13
2019-02-15T16:39:42.748Z,6.47
2019-02-15T16:42:12.723Z,6.85
2019-02-15T16:44:42.368Z,6.67
2019-02-15T16:47:12.038Z,7.47
2019-02-15T16:49:41.718Z,8.43
2019-02-15T16:52:11.398Z,7.40
2019-02-15T16:54:41.919Z,8.67
2019-02-15T16:57:11.634Z,8.10
2019-02-15T16:59:41.415Z,7.90
2019-02-15T17:02:11.184Z,7.70
2019-02-15T17:04:40.885Z,7.07
2019-02-15T17:07:10.538Z,6.97
2019-02-15T17:09:40.454Z,7.37
2019-02-15T17:12:10.363Z,7.33
2019-02-15T17:14:40.031Z,7.53
2019-02-15T17:17:09.707Z,7.00
2019-02-15T17:19:39.389Z,7.80
2019-02-15T17:22:09.119Z,8.97
2019-02-15T17:24:39.027Z,8.47
2019-02-15T17:27:08.696Z,8.80
2019-02-15T17:29:38.366Z,8.30
2019-02-15T17:32:08.052Z,8.13
2019-02-15T17:34:37.744Z,7.23
2019-02-15T17:37:07.417Z,8.07
2019-02-15T17:39:37.119Z,7.37
2019-02-15T17:42:06.812Z,9.63
2019-02-15T17:44:36.459Z,7.73
2019-02-15T17:47:06.371Z,8.23
2019-02-15T17:49:36.203Z,11.70
2019-02-15T17:52:05.955Z,10.20
2019-02-15T17:54:35.657Z,9.93
2019-02-15T17:57:05.335Z,11.03
2019-02-15T17:59:36.210Z,10.13
2019-02-15T18:02:07.675Z,10.57
2019-02-15T18:04:37.539Z,11.13
2019-02-15T18:07:07.222Z,10.83
2019-02-15T18:09:36.912Z,10.90
2019-02-15T18:12:06.589Z,9.90
2019-02-15T18:14:36.262Z,10.37
2019-02-15T18:17:05.954Z,10.10
2019-02-15T18:19:35.625Z,11.57
2019-02-15T18:22:05.305Z,13.60
2019-02-15T18:24:34.975Z,13.67
2019-02-15T18:27:05.214Z,13.70
2019-02-15T18:29:34.894Z,13.53
2019-02-15T18:32:04.915Z,11.97
2019-02-15T18:34:34.590Z,12.13
2019-02-15T18:37:04.824Z,11.65
2019-02-15T18:39:34.543Z,11.23
2019-02-15T18:42:05.048Z,10.50
2019-02-15T18:44:34.725Z,11.23
2019-02-15T18:47:05.413Z,9.35
2019-02-15T18:49:36.041Z,9.63
2019-02-15T18:52:05.815Z,8.10
2019-02-15T18:54:35.479Z,8.83
2019-02-15T18:57:05.157Z,9.93
2019-02-15T18:59:34.846Z,11.33
2019-02-15T19:02:05.192Z,14.98
2019-02-15T19:04:35.041Z,17.47
2019-02-15T19:07:06.038Z,15.88
2019-02-15T19:09:54.094Z,14.07
2019-02-15T19:12:23.903Z,18.70
2019-02-15T19:14:53.575Z,18.23
2019-02-15T19:17:23.245Z,17.70
2019-02-15T19:19:53.178Z,16.70
2019-02-15T19:22:23.176Z,18.95
2019-02-15T19:24:52.858Z,18.00
2019-02-15T19:27:22.520Z,15.73
2019-02-15T19:29:52.270Z,13.47
2019-02-15T19:32:21.964Z,12.53
2019-02-15T19:34:51.643Z,12.37
2019-02-15T19:37:22.280Z,12.93
2019-02-15T19:39:52.035Z,12.43
2019-02-15T19:42:22.545Z,12.93
2019-02-15T19:44:52.445Z,15.97
2019-02-15T19:47:22.120Z,14.03
2019-02-15T19:49:51.797Z,12.50
2019-02-15T19:52:21.979Z,11.87
2019-02-15T19:54:51.752Z,11.57
2019-02-15T19:57:21.390Z,10.15
2019-02-15T19:59:53.611Z,9.90
2019-02-15T20:02:22.690Z,10.20
2019-02-15T20:04:52.365Z,9.17
2019-02-15T20:07:22.131Z,9.27
2019-02-15T20:09:51.803Z,8.97
2019-02-15T20:12:21.650Z,9.30
2019-02-15T20:14:51.873Z,8.70
2019-02-15T20:17:21.530Z,8.83
2019-02-15T20:19:51.212Z,8.50
2019-02-15T20:22:20.868Z,8.70
2019-02-15T20:24:50.779Z,8.37
2019-02-15T20:27:20.448Z,8.50
2019-02-15T20:29:50.362Z,9.20
2019-02-15T20:32:20.023Z,8.95
2019-02-15T20:34:49.947Z,10.83
2019-02-15T20:37:19.629Z,12.40
2019-02-15T20:39:49.303Z,9.93
2019-02-15T20:42:19.000Z,10.28
2019-02-15T20:44:48.678Z,9.27
2019-02-15T20:47:18.349Z,12.20
2019-02-15T20:49:57.496Z,9.85
2019-02-15T20:52:20.497Z,9.13
2019-02-15T20:54:50.172Z,10.60
2019-02-15T20:57:19.868Z,11.10
2019-02-15T20:59:51.927Z,9.17
2019-02-15T21:02:21.607Z,8.73
2019-02-15T21:04:51.291Z,10.80
2019-02-15T21:07:21.029Z,9.63
2019-02-15T21:09:50.706Z,9.73
2019-02-15T21:12:20.383Z,9.30
2019-02-15T21:14:50.048Z,10.87
2019-02-15T21:17:19.730Z,10.18
2019-02-15T21:19:49.654Z,11.10
2019-02-15T21:22:19.352Z,10.87
2019-02-15T21:24:49.034Z,10.63
2019-02-15T21:27:18.714Z,11.87
2019-02-15T21:29:48.633Z,12.73
2019-02-15T21:32:18.302Z,12.20
2019-02-15T21:34:48.068Z,12.63
2019-02-15T21:37:17.920Z,16.60
2019-02-15T21:39:47.589Z,16.25
2019-02-15T21:42:17.284Z,14.23
2019-02-15T21:44:47.265Z,13.40
2019-02-15T21:47:16.961Z,13.40
2019-02-15T21:49:46.631Z,12.63
2019-02-15T21:52:16.304Z,12.98
2019-02-15T21:54:45.984Z,12.60
2019-02-15T21:57:15.725Z,13.40
2019-02-15T21:59:45.407Z,12.40
2019-02-15T22:02:15.073Z,14.58
2019-02-15T22:04:44.764Z,13.65
2019-02-15T22:07:14.449Z,14.90
2019-02-15T22:09:44.168Z,13.60
2019-02-15T22:12:13.849Z,15.80
2019-02-15T22:14:43.928Z,16.33
2019-02-15T22:17:13.603Z,14.55
2019-02-15T22:19:43.286Z,13.60
2019-02-15T22:22:12.957Z,13.70
2019-02-15T22:24:42.633Z,12.87
2019-02-15T22:27:12.299Z,13.10
2019-02-15T22:29:42.529Z,14.07
2019-02-15T22:32:12.460Z,13.40
2019-02-15T22:34:42.140Z,13.88
2019-02-15T22:37:11.822Z,12.77
2019-02-15T22:39:41.555Z,11.93
2019-02-15T22:42:11.241Z,11.80
2019-02-15T22:44:41.233Z,11.25
2019-02-15T22:47:11.151Z,10.98
2019-02-15T22:49:43.257Z,10.77
2019-02-15T22:52:12.212Z,11.23
2019-02-15T22:54:41.890Z,12.10
2019-02-15T22:57:11.818Z,13.30
2019-02-15T22:59:41.477Z,13.40
2019-02-15T23:02:11.902Z,12.90
2019-02-15T23:04:41.657Z,13.50
2019-02-15T23:07:12.360Z,13.13
2019-02-15T23:09:42.055Z,12.50
2019-02-15T23:12:11.755Z,12.30
2019-02-15T23:14:41.422Z,12.23
2019-02-15T23:17:11.099Z,13.20
2019-02-15T23:19:40.766Z,13.93
2019-02-15T23:22:10.461Z,12.50
2019-02-15T23:24:40.137Z,12.20
2019-02-15T23:27:09.825Z,12.23
2019-02-15T23:29:39.496Z,12.93
2019-02-15T23:32:09.240Z,11.60
2019-02-15T23:34:38.910Z,12.30
2019-02-15T23:37:09.636Z,13.53
2019-02-15T23:39:39.311Z,13.27
2019-02-15T23:42:08.978Z,14.68
2019-02-15T23:44:38.658Z,15.77
2019-02-15T23:47:08.339Z,16.33
2019-02-15T23:49:38.009Z,15.23
2019-02-15T23:52:07.848Z,15.17
2019-02-15T23:54:37.518Z,14.07
2019-02-15T23:57:07.204Z,13.63
2019-02-15T23:59:36.888Z,13.13
